sensor_id;sensor_type;location;lat;lon;timestamp;temperature;humidity
52867;DHT22;38739;53.324;6.862;2022-10-26T00:00:04;10.20;99.90
52867;DHT22;38739;53.324;6.862;2022-10-26T00:02:30;10.20;99.90
52867;DHT22;38739;53.324;6.862;2022-10-26T00:04:55;10.20;99.90
52867;DHT22;38739;53.324;6.862;2022-10-26T00:07:21;10.20;99.90
52867;DHT22;38739;53.324;6.862;2022-10-26T00:09:47;10.20;99.90
52867;DHT22;38739;53.324;6.862;2022-10-26T00:12:12;10.20;99.90
52867;DHT22;38739;53.324;6.862;2022-10-26T00:14:38;10.20;99.90
52867;DHT22;38739;53.324;6.862;2022-10-26T00:17:04;10.10;99.90
52867;DHT22;38739;53.324;6.862;2022-10-26T00:19:32;10.10;99.90
52867;DHT22;38739;53.324;6.862;2022-10-26T00:21:59;10.10;99.90
52867;DHT22;38739;53.324;6.862;2022-10-26T00:24:25;10.10;99.90
52867;DHT22;38739;53.324;6.862;2022-10-26T00:26:50;10.10;99.90
52867;DHT22;38739;53.324;6.862;2022-10-26T00:29:16;10.00;99.90
52867;DHT22;38739;53.324;6.862;2022-10-26T00:31:43;10.10;99.90
52867;DHT22;38739;53.324;6.862;2022-10-26T00:34:10;10.00;99.90
52867;DHT22;38739;53.324;6.862;2022-10-26T00:36:36;10.00;99.90
52867;DHT22;38739;53.324;6.862;2022-10-26T00:39:02;10.00;99.90
52867;DHT22;38739;53.324;6.862;2022-10-26T00:41:31;10.00;99.90
52867;DHT22;38739;53.324;6.862;2022-10-26T00:43:57;10.00;99.90
52867;DHT22;38739;53.324;6.862;2022-10-26T00:46:27;10.00;99.90
52867;DHT22;38739;53.324;6.862;2022-10-26T00:49:01;10.00;99.90
52867;DHT22;38739;53.324;6.862;2022-10-26T00:51:29;9.90;99.90
52867;DHT22;38739;53.324;6.862;2022-10-26T00:54:01;9.90;99.90
52867;DHT22;38739;53.324;6.862;2022-10-26T00:56:28;9.90;99.90
52867;DHT22;38739;53.324;6.862;2022-10-26T00:58:56;9.90;99.90
52867;DHT22;38739;53.324;6.862;2022-10-26T01:01:25;9.80;99.90
52867;DHT22;38739;53.324;6.862;2022-10-26T01:03:51;9.80;99.90
52867;DHT22;38739;53.324;6.862;2022-10-26T01:06:17;9.80;99.90
52867;DHT22;38739;53.324;6.862;2022-10-26T01:08:43;9.80;99.90
52867;DHT22;38739;53.324;6.862;2022-10-26T01:11:09;9.80;99.90
52867;DHT22;38739;53.324;6.862;2022-10-26T01:13:36;9.80;99.90
52867;DHT22;38739;53.324;6.862;2022-10-26T01:22:20;9.80;99.90
52867;DHT22;38739;53.324;6.862;2022-10-26T01:27:21;9.80;99.90
52867;DHT22;38739;53.324;6.862;2022-10-26T01:30:20;9.80;99.90
52867;DHT22;38739;53.324;6.862;2022-10-26T01:38:57;9.80;99.90
52867;DHT22;38739;53.324;6.862;2022-10-26T01:41:35;9.80;99.90
52867;DHT22;38739;53.324;6.862;2022-10-26T01:44:08;9.70;99.90
52867;DHT22;38739;53.324;6.862;2022-10-26T01:46:40;9.70;99.90
52867;DHT22;38739;53.324;6.862;2022-10-26T01:49:09;9.70;99.90
52867;DHT22;38739;53.324;6.862;2022-10-26T01:51:37;9.70;99.90
52867;DHT22;38739;53.324;6.862;2022-10-26T01:54:03;9.70;99.90
52867;DHT22;38739;53.324;6.862;2022-10-26T01:56:32;9.70;99.90
52867;DHT22;38739;53.324;6.862;2022-10-26T02:15:16;9.60;99.90
52867;DHT22;38739;53.324;6.862;2022-10-26T02:17:50;9.60;99.90
52867;DHT22;38739;53.324;6.862;2022-10-26T02:20:21;9.60;99.90
52867;DHT22;38739;53.324;6.862;2022-10-26T02:22:50;9.60;99.90
52867;DHT22;38739;53.324;6.862;2022-10-26T02:25:21;9.60;99.90
52867;DHT22;38739;53.324;6.862;2022-10-26T02:27:51;9.60;99.90
52867;DHT22;38739;53.324;6.862;2022-10-26T02:30:18;9.50;99.90
52867;DHT22;38739;53.324;6.862;2022-10-26T02:32:47;9.50;99.90
52867;DHT22;38739;53.324;6.862;2022-10-26T02:35:14;9.50;99.90
52867;DHT22;38739;53.324;6.862;2022-10-26T02:37:43;9.50;99.90
52867;DHT22;38739;53.324;6.862;2022-10-26T02:40:18;9.50;99.90
52867;DHT22;38739;53.324;6.862;2022-10-26T02:42:44;9.50;99.90
52867;DHT22;38739;53.324;6.862;2022-10-26T02:45:15;9.50;99.90
52867;DHT22;38739;53.324;6.862;2022-10-26T02:47:42;9.50;99.90
52867;DHT22;38739;53.324;6.862;2022-10-26T02:50:08;9.40;99.90
52867;DHT22;38739;53.324;6.862;2022-10-26T02:55:27;9.40;99.90
52867;DHT22;38739;53.324;6.862;2022-10-26T02:57:57;9.40;99.90
52867;DHT22;38739;53.324;6.862;2022-10-26T03:00:24;9.30;99.90
52867;DHT22;38739;53.324;6.862;2022-10-26T03:02:52;9.30;99.90
52867;DHT22;38739;53.324;6.862;2022-10-26T03:05:24;9.30;99.90
52867;DHT22;38739;53.324;6.862;2022-10-26T03:07:51;9.30;99.90
52867;DHT22;38739;53.324;6.862;2022-10-26T03:10:17;9.20;99.90
52867;DHT22;38739;53.324;6.862;2022-10-26T03:12:43;9.20;99.90
52867;DHT22;38739;53.324;6.862;2022-10-26T03:15:09;9.20;99.90
52867;DHT22;38739;53.324;6.862;2022-10-26T03:17:34;9.10;99.90
52867;DHT22;38739;53.324;6.862;2022-10-26T03:20:01;9.10;99.90
52867;DHT22;38739;53.324;6.862;2022-10-26T03:22:26;9.10;99.90
52867;DHT22;38739;53.324;6.862;2022-10-26T03:24:52;9.10;99.90
52867;DHT22;38739;53.324;6.862;2022-10-26T03:27:18;9.10;99.90
52867;DHT22;38739;53.324;6.862;2022-10-26T03:29:44;9.10;99.90
52867;DHT22;38739;53.324;6.862;2022-10-26T03:32:09;9.10;99.90
52867;DHT22;38739;53.324;6.862;2022-10-26T03:34:35;9.00;99.90
52867;DHT22;38739;53.324;6.862;2022-10-26T03:37:01;9.00;99.90
52867;DHT22;38739;53.324;6.862;2022-10-26T03:39:26;9.10;99.90
52867;DHT22;38739;53.324;6.862;2022-10-26T03:41:52;9.00;99.90
52867;DHT22;38739;53.324;6.862;2022-10-26T03:44:19;9.00;99.90
52867;DHT22;38739;53.324;6.862;2022-10-26T03:46:45;9.00;99.90
52867;DHT22;38739;53.324;6.862;2022-10-26T03:49:11;9.00;99.90
52867;DHT22;38739;53.324;6.862;2022-10-26T03:51:36;9.00;99.90
52867;DHT22;38739;53.324;6.862;2022-10-26T03:54:03;9.00;99.90
52867;DHT22;38739;53.324;6.862;2022-10-26T03:56:28;9.00;99.90
52867;DHT22;38739;53.324;6.862;2022-10-26T03:58:54;9.00;99.90
52867;DHT22;38739;53.324;6.862;2022-10-26T04:01:20;9.00;99.90
52867;DHT22;38739;53.324;6.862;2022-10-26T04:03:45;8.90;99.90
52867;DHT22;38739;53.324;6.862;2022-10-26T04:06:12;8.90;99.90
52867;DHT22;38739;53.324;6.862;2022-10-26T04:08:38;8.90;99.90
52867;DHT22;38739;53.324;6.862;2022-10-26T04:11:04;8.90;99.90
52867;DHT22;38739;53.324;6.862;2022-10-26T04:13:30;8.90;99.90
52867;DHT22;38739;53.324;6.862;2022-10-26T04:15:55;9.00;99.90
52867;DHT22;38739;53.324;6.862;2022-10-26T04:18:21;9.00;99.90
52867;DHT22;38739;53.324;6.862;2022-10-26T04:20:47;9.00;99.90
52867;DHT22;38739;53.324;6.862;2022-10-26T04:23:14;9.00;99.90
52867;DHT22;38739;53.324;6.862;2022-10-26T04:25:41;9.10;99.90
52867;DHT22;38739;53.324;6.862;2022-10-26T04:28:08;9.10;99.90
52867;DHT22;38739;53.324;6.862;2022-10-26T04:30:34;9.10;99.90
52867;DHT22;38739;53.324;6.862;2022-10-26T04:33:00;9.10;99.90
52867;DHT22;38739;53.324;6.862;2022-10-26T04:35:26;9.10;99.90
52867;DHT22;38739;53.324;6.862;2022-10-26T04:37:59;9.10;99.90
52867;DHT22;38739;53.324;6.862;2022-10-26T04:40:26;9.10;99.90
52867;DHT22;38739;53.324;6.862;2022-10-26T04:42:52;9.10;99.90
52867;DHT22;38739;53.324;6.862;2022-10-26T04:45:18;9.20;99.90
52867;DHT22;38739;53.324;6.862;2022-10-26T04:47:44;9.20;99.90
52867;DHT22;38739;53.324;6.862;2022-10-26T04:50:10;9.20;99.90
52867;DHT22;38739;53.324;6.862;2022-10-26T04:52:37;9.20;99.90
52867;DHT22;38739;53.324;6.862;2022-10-26T04:55:03;9.20;99.90
52867;DHT22;38739;53.324;6.862;2022-10-26T04:57:34;9.20;99.90
52867;DHT22;38739;53.324;6.862;2022-10-26T05:00:02;9.20;99.90
52867;DHT22;38739;53.324;6.862;2022-10-26T05:02:28;9.20;99.90
52867;DHT22;38739;53.324;6.862;2022-10-26T05:04:54;9.20;99.90
52867;DHT22;38739;53.324;6.862;2022-10-26T05:07:19;9.20;99.90
52867;DHT22;38739;53.324;6.862;2022-10-26T05:09:45;9.20;99.90
52867;DHT22;38739;53.324;6.862;2022-10-26T05:12:11;9.20;99.90
52867;DHT22;38739;53.324;6.862;2022-10-26T05:14:37;9.20;99.90
52867;DHT22;38739;53.324;6.862;2022-10-26T05:17:03;9.20;99.90
52867;DHT22;38739;53.324;6.862;2022-10-26T05:19:28;9.20;99.90
52867;DHT22;38739;53.324;6.862;2022-10-26T05:21:54;9.20;99.90
52867;DHT22;38739;53.324;6.862;2022-10-26T05:24:20;9.20;99.90
52867;DHT22;38739;53.324;6.862;2022-10-26T05:26:45;9.30;99.90
52867;DHT22;38739;53.324;6.862;2022-10-26T05:29:11;9.30;99.90
52867;DHT22;38739;53.324;6.862;2022-10-26T05:31:37;9.30;99.90
52867;DHT22;38739;53.324;6.862;2022-10-26T05:34:02;9.30;99.90
52867;DHT22;38739;53.324;6.862;2022-10-26T05:36:28;9.30;99.90
52867;DHT22;38739;53.324;6.862;2022-10-26T05:38:57;9.30;99.90
52867;DHT22;38739;53.324;6.862;2022-10-26T05:41:23;9.40;99.90
52867;DHT22;38739;53.324;6.862;2022-10-26T05:43:48;9.30;99.90
52867;DHT22;38739;53.324;6.862;2022-10-26T05:46:14;9.40;99.90
52867;DHT22;38739;53.324;6.862;2022-10-26T05:48:40;9.40;99.90
52867;DHT22;38739;53.324;6.862;2022-10-26T05:51:05;9.50;99.90
52867;DHT22;38739;53.324;6.862;2022-10-26T05:53:31;9.40;99.90
52867;DHT22;38739;53.324;6.862;2022-10-26T05:55:57;9.40;99.90
52867;DHT22;38739;53.324;6.862;2022-10-26T05:58:24;9.50;99.90
52867;DHT22;38739;53.324;6.862;2022-10-26T06:01:11;9.50;99.90
52867;DHT22;38739;53.324;6.862;2022-10-26T06:06:15;9.50;99.90
52867;DHT22;38739;53.324;6.862;2022-10-26T06:08:41;9.50;99.90
52867;DHT22;38739;53.324;6.862;2022-10-26T06:11:08;9.50;99.90
52867;DHT22;38739;53.324;6.862;2022-10-26T06:13:34;9.60;99.90
52867;DHT22;38739;53.324;6.862;2022-10-26T06:16:25;9.60;99.90
52867;DHT22;38739;53.324;6.862;2022-10-26T06:24:17;9.60;99.90
52867;DHT22;38739;53.324;6.862;2022-10-26T06:31:52;9.70;99.90
52867;DHT22;38739;53.324;6.862;2022-10-26T06:34:24;9.70;99.90
52867;DHT22;38739;53.324;6.862;2022-10-26T06:36:50;9.70;99.90
52867;DHT22;38739;53.324;6.862;2022-10-26T06:39:17;9.70;99.90
52867;DHT22;38739;53.324;6.862;2022-10-26T06:41:44;9.80;99.90
52867;DHT22;38739;53.324;6.862;2022-10-26T06:44:18;9.80;99.90
52867;DHT22;38739;53.324;6.862;2022-10-26T06:46:49;9.90;99.90
52867;DHT22;38739;53.324;6.862;2022-10-26T06:51:58;9.90;99.90
52867;DHT22;38739;53.324;6.862;2022-10-26T06:57:15;10.00;99.90
52867;DHT22;38739;53.324;6.862;2022-10-26T07:00:04;10.00;99.90
52867;DHT22;38739;53.324;6.862;2022-10-26T07:02:30;10.10;99.90
52867;DHT22;38739;53.324;6.862;2022-10-26T07:04:56;10.10;99.90
52867;DHT22;38739;53.324;6.862;2022-10-26T07:07:24;10.10;99.90
52867;DHT22;38739;53.324;6.862;2022-10-26T07:09:50;10.10;99.90
52867;DHT22;38739;53.324;6.862;2022-10-26T07:12:16;10.20;99.90
52867;DHT22;38739;53.324;6.862;2022-10-26T07:14:42;10.20;99.90
52867;DHT22;38739;53.324;6.862;2022-10-26T07:17:08;10.20;99.90
52867;DHT22;38739;53.324;6.862;2022-10-26T07:19:34;10.30;99.90
52867;DHT22;38739;53.324;6.862;2022-10-26T07:21:59;10.30;99.90
52867;DHT22;38739;53.324;6.862;2022-10-26T07:24:29;10.40;99.90
52867;DHT22;38739;53.324;6.862;2022-10-26T07:26:56;10.40;99.90
52867;DHT22;38739;53.324;6.862;2022-10-26T07:29:23;10.40;99.90
52867;DHT22;38739;53.324;6.862;2022-10-26T07:31:49;10.40;99.90
52867;DHT22;38739;53.324;6.862;2022-10-26T07:34:15;10.40;99.90
52867;DHT22;38739;53.324;6.862;2022-10-26T07:36:41;10.50;99.90
52867;DHT22;38739;53.324;6.862;2022-10-26T07:39:07;10.50;99.90
52867;DHT22;38739;53.324;6.862;2022-10-26T07:41:33;10.50;99.90
52867;DHT22;38739;53.324;6.862;2022-10-26T07:43:59;10.60;99.90
52867;DHT22;38739;53.324;6.862;2022-10-26T07:46:25;10.60;99.90
52867;DHT22;38739;53.324;6.862;2022-10-26T07:48:51;10.60;99.90
52867;DHT22;38739;53.324;6.862;2022-10-26T07:51:17;10.60;99.90
52867;DHT22;38739;53.324;6.862;2022-10-26T07:53:44;10.70;99.90
52867;DHT22;38739;53.324;6.862;2022-10-26T07:56:10;10.70;99.90
52867;DHT22;38739;53.324;6.862;2022-10-26T07:58:36;10.70;99.90
52867;DHT22;38739;53.324;6.862;2022-10-26T08:01:14;10.80;99.90
52867;DHT22;38739;53.324;6.862;2022-10-26T08:03:40;10.80;99.90
52867;DHT22;38739;53.324;6.862;2022-10-26T08:06:06;10.90;99.90
52867;DHT22;38739;53.324;6.862;2022-10-26T08:08:34;10.90;99.90
52867;DHT22;38739;53.324;6.862;2022-10-26T08:10:59;11.00;99.90
52867;DHT22;38739;53.324;6.862;2022-10-26T08:13:25;11.10;99.90
52867;DHT22;38739;53.324;6.862;2022-10-26T08:16:02;11.10;99.90
52867;DHT22;38739;53.324;6.862;2022-10-26T08:18:29;11.20;99.90
52867;DHT22;38739;53.324;6.862;2022-10-26T08:20:59;11.30;99.90
52867;DHT22;38739;53.324;6.862;2022-10-26T08:23:25;11.40;99.90
52867;DHT22;38739;53.324;6.862;2022-10-26T08:25:51;11.50;99.90
52867;DHT22;38739;53.324;6.862;2022-10-26T08:28:21;11.60;99.90
52867;DHT22;38739;53.324;6.862;2022-10-26T08:30:47;11.60;99.90
52867;DHT22;38739;53.324;6.862;2022-10-26T08:33:13;11.80;99.90
52867;DHT22;38739;53.324;6.862;2022-10-26T08:35:39;11.90;99.90
52867;DHT22;38739;53.324;6.862;2022-10-26T08:38:04;11.90;99.90
52867;DHT22;38739;53.324;6.862;2022-10-26T08:40:33;12.00;99.90
52867;DHT22;38739;53.324;6.862;2022-10-26T08:43:25;12.00;99.90
52867;DHT22;38739;53.324;6.862;2022-10-26T08:45:58;12.10;99.90
52867;DHT22;38739;53.324;6.862;2022-10-26T08:48:32;12.10;99.90
52867;DHT22;38739;53.324;6.862;2022-10-26T08:51:07;12.20;99.90
52867;DHT22;38739;53.324;6.862;2022-10-26T08:53:42;12.30;99.90
52867;DHT22;38739;53.324;6.862;2022-10-26T08:56:22;12.40;99.90
52867;DHT22;38739;53.324;6.862;2022-10-26T08:59:02;12.50;99.90
52867;DHT22;38739;53.324;6.862;2022-10-26T09:01:31;12.60;99.90
52867;DHT22;38739;53.324;6.862;2022-10-26T09:04:01;12.70;99.90
52867;DHT22;38739;53.324;6.862;2022-10-26T09:09:10;12.90;99.90
52867;DHT22;38739;53.324;6.862;2022-10-26T09:11:48;13.10;99.90
52867;DHT22;38739;53.324;6.862;2022-10-26T09:14:41;13.20;99.90
52867;DHT22;38739;53.324;6.862;2022-10-26T09:25:29;13.50;99.90
52867;DHT22;38739;53.324;6.862;2022-10-26T09:28:01;13.60;99.90
52867;DHT22;38739;53.324;6.862;2022-10-26T09:30:27;14.40;99.90
52867;DHT22;38739;53.324;6.862;2022-10-26T09:32:58;15.20;99.90
52867;DHT22;38739;53.324;6.862;2022-10-26T09:35:31;16.10;99.90
52867;DHT22;38739;53.324;6.862;2022-10-26T09:38:12;16.80;99.90
52867;DHT22;38739;53.324;6.862;2022-10-26T09:40:47;17.40;99.90
52867;DHT22;38739;53.324;6.862;2022-10-26T09:43:23;17.70;99.90
52867;DHT22;38739;53.324;6.862;2022-10-26T09:45:53;17.90;99.90
52867;DHT22;38739;53.324;6.862;2022-10-26T09:51:25;18.10;99.90
52867;DHT22;38739;53.324;6.862;2022-10-26T09:53:53;18.00;99.90
52867;DHT22;38739;53.324;6.862;2022-10-26T09:56:21;17.90;99.90
52867;DHT22;38739;53.324;6.862;2022-10-26T09:58:56;17.80;99.90
52867;DHT22;38739;53.324;6.862;2022-10-26T10:06:42;18.20;99.90
52867;DHT22;38739;53.324;6.862;2022-10-26T10:09:16;18.40;99.90
52867;DHT22;38739;53.324;6.862;2022-10-26T10:11:56;18.40;99.90
52867;DHT22;38739;53.324;6.862;2022-10-26T10:14:29;18.60;99.90
52867;DHT22;38739;53.324;6.862;2022-10-26T10:17:02;18.60;99.90
52867;DHT22;38739;53.324;6.862;2022-10-26T10:19:32;18.80;99.90
52867;DHT22;38739;53.324;6.862;2022-10-26T10:24:40;19.10;99.90
52867;DHT22;38739;53.324;6.862;2022-10-26T10:29:50;19.60;99.90
52867;DHT22;38739;53.324;6.862;2022-10-26T10:32:18;19.90;99.90
52867;DHT22;38739;53.324;6.862;2022-10-26T10:34:55;20.00;99.90
52867;DHT22;38739;53.324;6.862;2022-10-26T10:37:39;20.10;99.90
52867;DHT22;38739;53.324;6.862;2022-10-26T10:40:24;20.30;99.90
52867;DHT22;38739;53.324;6.862;2022-10-26T10:42:53;20.50;99.90
52867;DHT22;38739;53.324;6.862;2022-10-26T10:45:25;20.90;99.90
52867;DHT22;38739;53.324;6.862;2022-10-26T10:50:28;21.40;99.90
52867;DHT22;38739;53.324;6.862;2022-10-26T10:53:56;21.80;99.90
52867;DHT22;38739;53.324;6.862;2022-10-26T10:56:22;22.30;99.90
52867;DHT22;38739;53.324;6.862;2022-10-26T11:01:30;22.20;99.90
52867;DHT22;38739;53.324;6.862;2022-10-26T11:06:50;21.40;99.90
52867;DHT22;38739;53.324;6.862;2022-10-26T11:09:21;21.10;99.90
52867;DHT22;38739;53.324;6.862;2022-10-26T11:11:54;21.20;99.90
52867;DHT22;38739;53.324;6.862;2022-10-26T11:18:15;20.60;99.90
52867;DHT22;38739;53.324;6.862;2022-10-26T11:20:23;20.20;99.90
52867;DHT22;38739;53.324;6.862;2022-10-26T11:23:30;20.00;99.90
52867;DHT22;38739;53.324;6.862;2022-10-26T11:26:03;19.70;99.90
52867;DHT22;38739;53.324;6.862;2022-10-26T11:31:17;19.30;99.90
52867;DHT22;38739;53.324;6.862;2022-10-26T11:34:15;19.20;99.90
52867;DHT22;38739;53.324;6.862;2022-10-26T11:36:47;19.10;99.90
52867;DHT22;38739;53.324;6.862;2022-10-26T11:39:21;19.20;99.90
52867;DHT22;38739;53.324;6.862;2022-10-26T11:42:05;19.30;99.90
52867;DHT22;38739;53.324;6.862;2022-10-26T11:47:13;19.30;99.90
52867;DHT22;38739;53.324;6.862;2022-10-26T11:49:56;19.40;99.90
52867;DHT22;38739;53.324;6.862;2022-10-26T11:52:32;19.40;99.90
52867;DHT22;38739;53.324;6.862;2022-10-26T11:55:02;19.30;99.90
52867;DHT22;38739;53.324;6.862;2022-10-26T11:57:35;19.20;99.90
52867;DHT22;38739;53.324;6.862;2022-10-26T12:00:07;19.20;99.90
52867;DHT22;38739;53.324;6.862;2022-10-26T12:02:39;19.20;99.90
52867;DHT22;38739;53.324;6.862;2022-10-26T12:07:46;19.20;99.90
52867;DHT22;38739;53.324;6.862;2022-10-26T12:10:34;19.20;99.90
52867;DHT22;38739;53.324;6.862;2022-10-26T12:13:33;19.10;99.90
52867;DHT22;38739;53.324;6.862;2022-10-26T12:16:09;19.00;99.90
52867;DHT22;38739;53.324;6.862;2022-10-26T12:18:55;18.90;99.90
52867;DHT22;38739;53.324;6.862;2022-10-26T12:21:25;18.90;99.90
52867;DHT22;38739;53.324;6.862;2022-10-26T12:26:51;18.80;99.90
52867;DHT22;38739;53.324;6.862;2022-10-26T12:29:28;18.70;99.90
52867;DHT22;38739;53.324;6.862;2022-10-26T12:31:55;18.70;99.90
52867;DHT22;38739;53.324;6.862;2022-10-26T12:37:21;18.60;99.90
52867;DHT22;38739;53.324;6.862;2022-10-26T12:39:47;18.60;99.90
52867;DHT22;38739;53.324;6.862;2022-10-26T13:00:14;18.90;99.90
52867;DHT22;38739;53.324;6.862;2022-10-26T13:08:06;19.00;99.90
52867;DHT22;38739;53.324;6.862;2022-10-26T13:10:33;19.00;99.90
52867;DHT22;38739;53.324;6.862;2022-10-26T13:13:02;19.00;99.90
52867;DHT22;38739;53.324;6.862;2022-10-26T13:15:39;19.10;99.90
52867;DHT22;38739;53.324;6.862;2022-10-26T13:18:15;19.10;99.90
52867;DHT22;38739;53.324;6.862;2022-10-26T13:21:07;19.10;99.90
52867;DHT22;38739;53.324;6.862;2022-10-26T13:23:41;19.10;99.90
52867;DHT22;38739;53.324;6.862;2022-10-26T13:26:13;19.10;99.90
52867;DHT22;38739;53.324;6.862;2022-10-26T13:34:09;19.00;99.90
52867;DHT22;38739;53.324;6.862;2022-10-26T13:36:54;19.00;99.90
52867;DHT22;38739;53.324;6.862;2022-10-26T13:39:34;18.90;99.90
52867;DHT22;38739;53.324;6.862;2022-10-26T13:42:02;18.80;99.90
52867;DHT22;38739;53.324;6.862;2022-10-26T13:44:47;18.80;99.90
52867;DHT22;38739;53.324;6.862;2022-10-26T13:49:56;18.70;99.90
52867;DHT22;38739;53.324;6.862;2022-10-26T13:52:44;18.70;99.90
52867;DHT22;38739;53.324;6.862;2022-10-26T13:55:36;18.70;99.90
52867;DHT22;38739;53.324;6.862;2022-10-26T13:58:24;18.60;99.90
52867;DHT22;38739;53.324;6.862;2022-10-26T14:03:34;18.60;99.90
52867;DHT22;38739;53.324;6.862;2022-10-26T14:06:14;18.60;99.90
52867;DHT22;38739;53.324;6.862;2022-10-26T14:08:42;18.60;99.90
52867;DHT22;38739;53.324;6.862;2022-10-26T14:11:12;18.50;99.90
52867;DHT22;38739;53.324;6.862;2022-10-26T14:13:39;18.50;99.90
52867;DHT22;38739;53.324;6.862;2022-10-26T14:16:09;18.40;99.90
52867;DHT22;38739;53.324;6.862;2022-10-26T14:18:36;18.40;99.90
52867;DHT22;38739;53.324;6.862;2022-10-26T14:21:31;18.40;99.90
52867;DHT22;38739;53.324;6.862;2022-10-26T14:23:59;18.40;99.90
52867;DHT22;38739;53.324;6.862;2022-10-26T14:26:37;18.40;99.90
52867;DHT22;38739;53.324;6.862;2022-10-26T14:29:03;18.30;99.90
52867;DHT22;38739;53.324;6.862;2022-10-26T14:31:30;18.30;99.90
52867;DHT22;38739;53.324;6.862;2022-10-26T14:33:58;18.30;99.90
52867;DHT22;38739;53.324;6.862;2022-10-26T14:36:48;18.30;99.90
52867;DHT22;38739;53.324;6.862;2022-10-26T14:39:35;18.30;99.90
52867;DHT22;38739;53.324;6.862;2022-10-26T14:42:09;18.20;99.90
52867;DHT22;38739;53.324;6.862;2022-10-26T14:44:36;18.20;99.90
52867;DHT22;38739;53.324;6.862;2022-10-26T14:47:02;18.20;99.90
52867;DHT22;38739;53.324;6.862;2022-10-26T14:49:28;18.10;99.90
52867;DHT22;38739;53.324;6.862;2022-10-26T14:51:59;18.10;99.90
52867;DHT22;38739;53.324;6.862;2022-10-26T14:54:28;18.10;99.90
52867;DHT22;38739;53.324;6.862;2022-10-26T14:56:54;18.10;99.90
52867;DHT22;38739;53.324;6.862;2022-10-26T14:59:30;18.00;99.90
52867;DHT22;38739;53.324;6.862;2022-10-26T15:04:39;17.80;99.90
52867;DHT22;38739;53.324;6.862;2022-10-26T15:09:48;17.60;99.90
52867;DHT22;38739;53.324;6.862;2022-10-26T15:12:35;17.50;99.90
52867;DHT22;38739;53.324;6.862;2022-10-26T15:17:48;17.40;99.90
52867;DHT22;38739;53.324;6.862;2022-10-26T15:20:22;17.30;99.90
52867;DHT22;38739;53.324;6.862;2022-10-26T15:22:59;17.30;99.90
52867;DHT22;38739;53.324;6.862;2022-10-26T15:25:27;17.20;99.90
52867;DHT22;38739;53.324;6.862;2022-10-26T15:28:06;17.20;99.90
52867;DHT22;38739;53.324;6.862;2022-10-26T15:30:32;17.10;99.90
52867;DHT22;38739;53.324;6.862;2022-10-26T15:33:16;17.10;99.90
52867;DHT22;38739;53.324;6.862;2022-10-26T15:35:42;17.00;99.90
52867;DHT22;38739;53.324;6.862;2022-10-26T15:38:10;17.00;99.90
52867;DHT22;38739;53.324;6.862;2022-10-26T15:40:41;17.00;99.90
52867;DHT22;38739;53.324;6.862;2022-10-26T15:43:10;17.00;99.90
52867;DHT22;38739;53.324;6.862;2022-10-26T15:45:45;16.90;99.90
52867;DHT22;38739;53.324;6.862;2022-10-26T15:48:22;16.90;99.90
52867;DHT22;38739;53.324;6.862;2022-10-26T15:50:48;16.90;99.90
52867;DHT22;38739;53.324;6.862;2022-10-26T15:53:22;16.80;99.90
52867;DHT22;38739;53.324;6.862;2022-10-26T15:55:54;16.80;99.90
52867;DHT22;38739;53.324;6.862;2022-10-26T15:58:21;16.80;99.90
52867;DHT22;38739;53.324;6.862;2022-10-26T16:00:47;16.70;99.90
52867;DHT22;38739;53.324;6.862;2022-10-26T16:03:16;16.70;99.90
52867;DHT22;38739;53.324;6.862;2022-10-26T16:05:43;16.60;99.90
52867;DHT22;38739;53.324;6.862;2022-10-26T16:08:14;16.60;99.90
52867;DHT22;38739;53.324;6.862;2022-10-26T16:10:40;16.50;99.90
52867;DHT22;38739;53.324;6.862;2022-10-26T16:13:11;16.40;99.90
52867;DHT22;38739;53.324;6.862;2022-10-26T16:15:37;16.40;99.90
52867;DHT22;38739;53.324;6.862;2022-10-26T16:18:03;16.30;99.90
52867;DHT22;38739;53.324;6.862;2022-10-26T16:20:29;16.30;99.90
52867;DHT22;38739;53.324;6.862;2022-10-26T16:22:55;16.20;99.90
52867;DHT22;38739;53.324;6.862;2022-10-26T16:25:25;16.20;99.90
52867;DHT22;38739;53.324;6.862;2022-10-26T16:27:52;16.10;99.90
52867;DHT22;38739;53.324;6.862;2022-10-26T16:30:19;16.10;99.90
52867;DHT22;38739;53.324;6.862;2022-10-26T16:32:45;16.10;99.90
52867;DHT22;38739;53.324;6.862;2022-10-26T16:35:11;16.00;99.90
52867;DHT22;38739;53.324;6.862;2022-10-26T16:37:37;16.00;99.90
52867;DHT22;38739;53.324;6.862;2022-10-26T16:40:04;15.90;99.90
52867;DHT22;38739;53.324;6.862;2022-10-26T16:42:31;15.90;99.90
52867;DHT22;38739;53.324;6.862;2022-10-26T16:44:57;15.90;99.90
52867;DHT22;38739;53.324;6.862;2022-10-26T16:47:22;15.80;99.90
52867;DHT22;38739;53.324;6.862;2022-10-26T16:49:48;15.80;99.90
52867;DHT22;38739;53.324;6.862;2022-10-26T16:52:14;15.80;99.90
52867;DHT22;38739;53.324;6.862;2022-10-26T16:54:40;15.80;99.90
52867;DHT22;38739;53.324;6.862;2022-10-26T16:57:05;15.70;99.90
52867;DHT22;38739;53.324;6.862;2022-10-26T16:59:31;15.70;99.90
52867;DHT22;38739;53.324;6.862;2022-10-26T17:01:57;15.70;99.90
52867;DHT22;38739;53.324;6.862;2022-10-26T17:04:22;15.70;99.90
52867;DHT22;38739;53.324;6.862;2022-10-26T17:06:48;15.70;99.90
52867;DHT22;38739;53.324;6.862;2022-10-26T17:09:14;15.70;99.90
52867;DHT22;38739;53.324;6.862;2022-10-26T17:11:40;15.70;99.90
52867;DHT22;38739;53.324;6.862;2022-10-26T17:14:06;15.70;99.90
52867;DHT22;38739;53.324;6.862;2022-10-26T17:16:32;15.70;99.90
52867;DHT22;38739;53.324;6.862;2022-10-26T17:19:00;15.70;99.90
52867;DHT22;38739;53.324;6.862;2022-10-26T17:21:33;15.70;99.90
52867;DHT22;38739;53.324;6.862;2022-10-26T17:24:00;15.70;99.90
52867;DHT22;38739;53.324;6.862;2022-10-26T17:26:26;15.70;99.90
52867;DHT22;38739;53.324;6.862;2022-10-26T17:28:53;15.60;99.90
52867;DHT22;38739;53.324;6.862;2022-10-26T17:31:21;15.60;99.90
52867;DHT22;38739;53.324;6.862;2022-10-26T17:33:46;15.60;99.90
52867;DHT22;38739;53.324;6.862;2022-10-26T17:36:17;15.60;99.90
52867;DHT22;38739;53.324;6.862;2022-10-26T17:38:47;15.50;99.90
52867;DHT22;38739;53.324;6.862;2022-10-26T17:41:15;15.60;99.90
52867;DHT22;38739;53.324;6.862;2022-10-26T17:43:42;15.50;99.90
52867;DHT22;38739;53.324;6.862;2022-10-26T17:46:19;15.50;99.90
52867;DHT22;38739;53.324;6.862;2022-10-26T17:48:45;15.50;99.90
52867;DHT22;38739;53.324;6.862;2022-10-26T17:51:16;15.50;99.90
52867;DHT22;38739;53.324;6.862;2022-10-26T17:53:45;15.40;99.90
52867;DHT22;38739;53.324;6.862;2022-10-26T17:56:14;15.40;99.90
52867;DHT22;38739;53.324;6.862;2022-10-26T17:58:40;15.40;99.90
52867;DHT22;38739;53.324;6.862;2022-10-26T18:01:07;15.40;99.90
52867;DHT22;38739;53.324;6.862;2022-10-26T18:03:34;15.40;99.90
52867;DHT22;38739;53.324;6.862;2022-10-26T18:06:00;15.30;99.90
52867;DHT22;38739;53.324;6.862;2022-10-26T18:08:30;15.30;99.90
52867;DHT22;38739;53.324;6.862;2022-10-26T18:10:56;15.30;99.90
52867;DHT22;38739;53.324;6.862;2022-10-26T18:13:23;15.30;99.90
52867;DHT22;38739;53.324;6.862;2022-10-26T18:15:49;15.20;99.90